createdAt,value
2019-04-23T00:00:03.752Z,92.20
2019-04-23T00:02:53.636Z,92.30
2019-04-23T00:10:36.742Z,92.60
2019-04-23T00:13:12.893Z,92.80
2019-04-23T00:15:54.740Z,92.80
2019-04-23T00:18:35.559Z,93.00
2019-04-23T00:20:57.860Z,93.00
2019-04-23T00:23:38.468Z,93.20
2019-04-23T00:26:10.039Z,93.30
2019-04-23T00:28:42.268Z,93.30
2019-04-23T00:31:15.485Z,93.50
2019-04-23T00:33:44.848Z,93.60
2019-04-23T00:36:17.409Z,93.80
2019-04-23T00:38:57.178Z,93.70
2019-04-23T00:41:16.582Z,93.90
2019-04-23T00:43:48.756Z,94.10
2019-04-23T00:46:15.198Z,94.10
2019-04-23T00:48:52.196Z,94.10
2019-04-23T00:51:18.488Z,94.30
2019-04-23T00:53:51.862Z,94.40
2019-04-23T00:58:56.443Z,94.40
2019-04-23T01:01:30.125Z,94.50
2019-04-23T01:03:55.105Z,94.60
2019-04-23T01:06:24.026Z,94.60
2019-04-23T01:08:59.536Z,94.70
2019-04-23T01:11:28.652Z,94.80
2019-04-23T01:14:03.979Z,94.90
2019-04-23T01:16:33.321Z,95.00
2019-04-23T01:19:08.711Z,95.20
2019-04-23T01:21:41.255Z,95.30
2019-04-23T01:24:38.488Z,95.40
2019-04-23T01:30:09.732Z,95.50
2019-04-23T01:35:17.775Z,95.60
2019-04-23T01:40:12.102Z,95.70
2019-04-23T01:45:20.317Z,96.00
2019-04-23T01:55:24.429Z,96.20
2019-04-23T01:57:58.527Z,96.30
2019-04-23T02:00:22.324Z,96.40
2019-04-23T02:02:57.815Z,96.40
2019-04-23T02:08:06.477Z,96.60
2019-04-23T02:10:39.414Z,96.60
2019-04-23T02:13:01.578Z,96.60
2019-04-23T02:15:31.279Z,96.70
2019-04-23T02:18:10.472Z,96.70
2019-04-23T02:20:43.045Z,96.70
2019-04-23T02:23:39.669Z,96.80
2019-04-23T02:26:10.862Z,96.80
2019-04-23T02:31:32.251Z,96.90
2019-04-23T02:33:49.568Z,96.90
2019-04-23T02:41:35.126Z,97.20
2019-04-23T02:43:59.609Z,97.20
2019-04-23T02:46:36.132Z,97.20
2019-04-23T02:48:59.905Z,97.50
2019-04-23T02:51:30.897Z,97.50
2019-04-23T02:54:08.464Z,97.50
2019-04-23T02:59:05.839Z,97.70
2019-04-23T03:04:14.948Z,97.80
2019-04-23T03:09:04.460Z,97.70
2019-04-23T03:11:40.554Z,97.80
2019-04-23T03:14:12.099Z,97.90
2019-04-23T03:19:55.221Z,97.90
2019-04-23T03:22:50.726Z,97.90
2019-04-23T03:25:42.371Z,97.90
2019-04-23T03:27:56.070Z,98.10
2019-04-23T03:31:41.414Z,98.20
2019-04-23T03:38:44.385Z,98.00
2019-04-23T03:41:15.744Z,98.20
2019-04-23T03:46:12.395Z,98.20
2019-04-23T03:48:38.372Z,98.40
2019-04-23T03:50:57.454Z,98.60
2019-04-23T04:01:07.627Z,98.50
2019-04-23T04:04:03.796Z,98.60
2019-04-23T04:06:14.234Z,98.60
2019-04-23T04:08:35.954Z,98.60
2019-04-23T04:16:09.442Z,98.80
2019-04-23T04:18:44.403Z,98.70
2019-04-23T04:21:24.626Z,98.70
2019-04-23T04:23:58.241Z,98.70
2019-04-23T04:26:29.197Z,98.80
2019-04-23T04:28:51.116Z,98.70
2019-04-23T04:31:21.449Z,98.80
2019-04-23T04:36:26.443Z,98.90
2019-04-23T04:38:57.681Z,99.10
2019-04-23T04:44:19.318Z,98.90
2019-04-23T04:54:13.956Z,98.80
2019-04-23T04:59:08.761Z,99.00
2019-04-23T05:04:16.517Z,99.00
2019-04-23T05:06:48.233Z,99.20
2019-04-23T05:09:17.110Z,99.10
2019-04-23T05:11:45.415Z,99.10
2019-04-23T05:14:08.270Z,99.10
2019-04-23T05:16:43.215Z,99.10
2019-04-23T05:19:28.740Z,99.10
2019-04-23T05:24:23.198Z,99.20
2019-04-23T05:26:49.631Z,99.00
2019-04-23T05:29:15.190Z,99.10
2019-04-23T05:31:52.916Z,99.00
2019-04-23T05:34:22.270Z,99.10
2019-04-23T05:37:17.068Z,98.90
2019-04-23T05:39:38.106Z,98.90
2019-04-23T05:41:59.210Z,99.00
2019-04-23T05:44:41.464Z,98.90
2019-04-23T05:47:14.989Z,98.70
2019-04-23T05:49:32.592Z,98.50
2019-04-23T05:52:01.264Z,98.30
2019-04-23T05:57:06.967Z,98.00
2019-04-23T05:59:36.048Z,98.20
2019-04-23T06:02:10.510Z,98.10
2019-04-23T06:07:22.106Z,98.10
2019-04-23T06:09:50.423Z,98.10
2019-04-23T06:12:16.893Z,97.80
2019-04-23T06:14:47.478Z,97.90
2019-04-23T06:17:17.804Z,97.50
2019-04-23T06:19:49.762Z,97.50
2019-04-23T06:24:53.523Z,97.40
2019-04-23T06:29:50.128Z,97.30
2019-04-23T06:32:25.976Z,97.30
2019-04-23T06:34:52.884Z,97.30
2019-04-23T06:42:31.249Z,96.80
2019-04-23T06:44:59.904Z,96.80
2019-04-23T06:47:32.515Z,96.70
2019-04-23T06:49:58.210Z,96.50
2019-04-23T06:52:31.421Z,96.60
2019-04-23T06:55:14.963Z,96.60
2019-04-23T06:57:31.822Z,96.10
2019-04-23T07:07:54.772Z,95.60
2019-04-23T07:10:34.814Z,95.80
2019-04-23T07:12:52.333Z,95.50
2019-04-23T07:15:38.030Z,95.30
2019-04-23T07:17:51.860Z,95.60
2019-04-23T07:20:21.581Z,95.60
2019-04-23T07:23:03.515Z,95.60
2019-04-23T07:27:58.424Z,95.90
2019-04-23T07:30:38.407Z,95.40
2019-04-23T07:33:01.829Z,95.20
2019-04-23T07:35:24.490Z,95.60
2019-04-23T07:38:01.816Z,95.50
2019-04-23T07:40:31.290Z,95.50
2019-04-23T07:43:20.204Z,95.20
2019-04-23T07:46:12.084Z,95.30
2019-04-23T07:48:22.371Z,95.30
2019-04-23T07:51:03.339Z,94.70
2019-04-23T07:53:44.333Z,94.40
2019-04-23T07:56:07.704Z,94.60
2019-04-23T07:58:33.479Z,94.30
2019-04-23T08:01:12.528Z,94.20
2019-04-23T08:03:43.673Z,94.10
2019-04-23T08:06:12.114Z,93.90
2019-04-23T08:08:43.326Z,93.80
2019-04-23T08:13:53.395Z,93.40
2019-04-23T08:16:32.965Z,93.60
2019-04-23T08:21:18.139Z,93.60
2019-04-23T08:24:18.195Z,93.60
2019-04-23T08:27:18.294Z,93.40
2019-04-23T08:29:45.879Z,93.30
2019-04-23T08:37:36.097Z,93.20
2019-04-23T08:40:15.168Z,92.80
2019-04-23T08:50:50.750Z,92.10
2019-04-23T08:56:08.892Z,91.90
2019-04-23T09:01:03.811Z,91.80
2019-04-23T09:03:41.842Z,91.80
2019-04-23T09:08:42.258Z,91.70
2019-04-23T09:16:07.510Z,91.30
2019-04-23T09:18:32.635Z,91.00
2019-04-23T09:21:10.560Z,91.00
2019-04-23T09:23:46.803Z,90.60
2019-04-23T09:26:22.292Z,90.30
2019-04-23T09:28:45.442Z,87.40
2019-04-23T09:31:30.416Z,85.90
2019-04-23T09:37:00.567Z,85.20
2019-04-23T09:39:42.202Z,84.20
2019-04-23T09:42:26.197Z,83.00
2019-04-23T09:47:58.798Z,81.40
2019-04-23T09:55:35.126Z,82.10
2019-04-23T10:00:40.653Z,81.10
2019-04-23T10:03:04.889Z,79.80
2019-04-23T10:05:31.044Z,80.20
2019-04-23T10:08:01.774Z,79.20
2019-04-23T10:10:22.797Z,79.00
2019-04-23T10:12:53.630Z,78.40
2019-04-23T10:15:28.813Z,75.50
2019-04-23T10:17:56.211Z,75.10
2019-04-23T10:20:26.778Z,73.50
2019-04-23T10:22:56.767Z,73.60
2019-04-23T10:25:27.775Z,74.70
2019-04-23T10:28:01.682Z,74.40
2019-04-23T10:30:29.146Z,71.70
2019-04-23T10:33:05.450Z,70.90
2019-04-23T10:35:49.238Z,69.30
2019-04-23T10:38:14.838Z,70.50
2019-04-23T10:40:56.012Z,68.20
2019-04-23T10:43:27.659Z,68.80
2019-04-23T10:46:47.133Z,67.40
2019-04-23T10:52:20.495Z,64.80
2019-04-23T10:57:36.350Z,63.80
2019-04-23T11:00:17.627Z,65.50
2019-04-23T11:03:12.315Z,64.40
2019-04-23T11:05:28.972Z,64.50
2019-04-23T11:07:54.807Z,65.60
2019-04-23T11:10:25.943Z,65.00
2019-04-23T11:13:32.025Z,64.80
2019-04-23T11:16:25.392Z,66.40
2019-04-23T11:19:15.544Z,65.90
2019-04-23T11:22:24.129Z,66.70
2019-04-23T11:29:38.651Z,59.40
2019-04-23T11:32:33.110Z,58.40
2019-04-23T11:38:15.873Z,57.80
2019-04-23T11:40:08.734Z,57.60
2019-04-23T11:42:45.026Z,57.70
2019-04-23T11:45:19.228Z,58.40
2019-04-23T11:48:12.335Z,56.90
2019-04-23T11:50:18.911Z,57.50
2019-04-23T11:57:59.196Z,58.20
2019-04-23T12:00:38.972Z,57.80
2019-04-23T12:03:24.405Z,58.20
2019-04-23T12:06:15.618Z,58.10
2019-04-23T12:08:57.080Z,58.30
2019-04-23T12:14:29.124Z,59.40
2019-04-23T12:17:08.023Z,58.30
2019-04-23T12:22:08.817Z,57.20
2019-04-23T12:40:19.181Z,63.60
2019-04-23T12:42:57.037Z,66.10
2019-04-23T12:45:20.605Z,66.80
2019-04-23T12:47:49.973Z,67.90
2019-04-23T12:50:42.220Z,68.90
2019-04-23T12:52:47.140Z,69.70
2019-04-23T12:55:24.713Z,70.50
2019-04-23T12:58:06.350Z,70.70
2019-04-23T13:00:37.251Z,71.50
2019-04-23T13:03:12.268Z,71.90
2019-04-23T13:05:38.943Z,72.60
2019-04-23T13:08:28.997Z,73.90
2019-04-23T13:10:52.826Z,74.30
2019-04-23T13:16:05.897Z,74.50
2019-04-23T13:18:46.746Z,75.50
2019-04-23T13:21:38.358Z,76.00
2019-04-23T13:23:54.748Z,75.90
2019-04-23T13:26:27.893Z,76.90
2019-04-23T13:29:01.088Z,76.70
2019-04-23T13:31:29.339Z,76.20
2019-04-23T13:34:08.491Z,76.70
2019-04-23T13:36:41.886Z,76.00
2019-04-23T13:39:10.633Z,75.10
2019-04-23T13:41:39.112Z,75.30
2019-04-23T13:44:14.219Z,75.20
2019-04-23T13:46:35.566Z,75.40
2019-04-23T13:49:07.666Z,76.30
2019-04-23T13:51:44.682Z,75.70
2019-04-23T13:59:30.301Z,75.90
2019-04-23T14:01:50.421Z,75.70
2019-04-23T14:04:41.678Z,75.80
2019-04-23T14:09:45.855Z,76.10
2019-04-23T14:12:08.506Z,77.20
2019-04-23T14:14:47.820Z,77.30
2019-04-23T14:19:45.270Z,77.60
2019-04-23T14:22:31.142Z,78.50
2019-04-23T14:27:24.102Z,77.60
2019-04-23T14:29:58.527Z,76.60
2019-04-23T14:32:23.221Z,75.90
2019-04-23T14:35:04.241Z,75.70
2019-04-23T14:37:21.769Z,75.40
2019-04-23T14:40:03.761Z,76.60
2019-04-23T14:42:44.571Z,76.50
2019-04-23T14:45:16.752Z,76.90
2019-04-23T14:47:47.846Z,77.40
2019-04-23T14:50:24.681Z,77.20
2019-04-23T14:52:38.196Z,77.00
2019-04-23T14:57:53.622Z,77.50
2019-04-23T15:02:44.772Z,75.90
2019-04-23T15:07:46.658Z,75.30
2019-04-23T15:10:32.586Z,74.20
2019-04-23T15:12:57.914Z,74.40
2019-04-23T15:15:19.514Z,76.30
2019-04-23T15:17:49.828Z,78.00
2019-04-23T15:20:25.052Z,78.80
2019-04-23T15:27:15.902Z,79.80
2019-04-23T15:30:20.773Z,80.60
2019-04-23T15:33:21.913Z,81.10
2019-04-23T15:35:53.279Z,81.50
2019-04-23T15:38:30.650Z,81.30
2019-04-23T15:40:59.037Z,81.10
2019-04-23T15:43:14.467Z,81.20
2019-04-23T15:45:47.471Z,81.70
2019-04-23T15:48:16.552Z,80.30
2019-04-23T15:50:51.573Z,79.90
2019-04-23T15:53:11.415Z,80.10
2019-04-23T15:58:28.189Z,80.90
2019-04-23T16:03:29.002Z,81.10
2019-04-23T16:05:59.426Z,81.00
2019-04-23T16:16:41.231Z,81.30
2019-04-23T16:22:09.293Z,82.00
2019-04-23T16:24:26.690Z,82.30
2019-04-23T16:27:07.487Z,82.20
2019-04-23T16:32:14.793Z,83.10
2019-04-23T16:34:56.646Z,84.00
2019-04-23T16:37:20.060Z,83.50
2019-04-23T16:40:01.492Z,84.00
2019-04-23T16:45:08.243Z,84.30
2019-04-23T16:47:32.773Z,85.00
2019-04-23T16:50:04.538Z,85.20
2019-04-23T16:52:26.565Z,85.70
2019-04-23T16:57:43.607Z,86.00
2019-04-23T17:02:34.180Z,86.20
2019-04-23T17:05:12.409Z,86.50
2019-04-23T17:07:53.777Z,87.40
2019-04-23T17:10:23.242Z,87.80
2019-04-23T17:12:46.271Z,88.20
2019-04-23T17:15:23.203Z,88.60
2019-04-23T17:17:49.529Z,88.90
2019-04-23T17:20:23.824Z,88.70
2019-04-23T17:25:20.442Z,89.40
2019-04-23T17:27:58.146Z,90.00
2019-04-23T17:30:28.204Z,90.20
2019-04-23T17:33:09.709Z,90.30
2019-04-23T17:36:00.939Z,90.60
2019-04-23T17:38:30.344Z,90.70
2019-04-23T17:40:59.865Z,90.60
2019-04-23T17:43:26.448Z,90.90
2019-04-23T17:45:56.646Z,91.00
2019-04-23T17:48:43.872Z,91.10
2019-04-23T17:51:16.536Z,91.20
2019-04-23T17:53:50.153Z,91.30
2019-04-23T17:56:34.308Z,91.40
2019-04-23T17:58:51.500Z,91.60
2019-04-23T18:14:02.292Z,92.10
2019-04-23T18:21:44.121Z,92.50
2019-04-23T18:24:34.035Z,92.60
2019-04-23T18:29:53.630Z,92.90
2019-04-23T18:32:43.457Z,93.00
2019-04-23T18:40:04.744Z,93.50
2019-04-23T18:45:20.293Z,93.70
2019-04-23T18:47:54.801Z,93.80
2019-04-23T18:50:22.989Z,94.00
2019-04-23T18:55:24.303Z,94.20
2019-04-23T18:57:50.402Z,94.30
2019-04-23T19:00:24.925Z,94.50
2019-04-23T19:03:11.007Z,94.50
2019-04-23T19:06:01.443Z,94.60
2019-04-23T19:08:48.279Z,94.80
2019-04-23T19:11:13.683Z,94.90
2019-04-23T19:13:44.550Z,95.00
2019-04-23T19:16:20.902Z,95.10
2019-04-23T19:18:49.318Z,95.20
2019-04-23T19:21:31.492Z,95.30
2019-04-23T19:26:41.755Z,95.50
2019-04-23T19:31:56.939Z,95.70
2019-04-23T19:39:50.150Z,96.00
2019-04-23T19:42:20.848Z,96.20
2019-04-23T19:52:18.692Z,96.50
2019-04-23T19:54:55.495Z,96.60
2019-04-23T19:57:19.435Z,96.70
2019-04-23T20:02:32.384Z,97.10
2019-04-23T20:05:06.779Z,97.40
2019-04-23T20:09:51.631Z,97.50
2019-04-23T20:12:36.003Z,97.60
2019-04-23T20:17:37.760Z,97.90
2019-04-23T20:20:23.291Z,98.00
2019-04-23T20:22:41.814Z,98.10
2019-04-23T20:27:39.228Z,98.60
2019-04-23T20:30:41.332Z,98.80
2019-04-23T20:33:37.656Z,98.90
2019-04-23T20:35:16.223Z,98.90
2019-04-23T20:38:17.267Z,99.10
2019-04-23T20:40:30.392Z,99.20
2019-04-23T20:42:56.791Z,99.30
2019-04-23T20:45:33.327Z,99.60
2019-04-23T20:48:02.193Z,99.80
2019-04-23T20:50:34.493Z,99.90
2019-04-23T20:52:57.483Z,99.90
2019-04-23T20:58:09.492Z,99.90
2019-04-23T21:01:00.385Z,99.90
2019-04-23T21:03:45.577Z,99.90
2019-04-23T21:05:58.553Z,99.90
2019-04-23T21:10:55.336Z,99.90
2019-04-23T21:13:53.877Z,99.90
2019-04-23T21:15:57.875Z,99.90
2019-04-23T21:18:35.891Z,99.90
2019-04-23T21:21:08.270Z,99.90
2019-04-23T21:23:48.060Z,99.90
2019-04-23T21:26:02.385Z,99.90
2019-04-23T21:28:44.483Z,99.90
2019-04-23T21:36:40.160Z,99.90
2019-04-23T21:39:51.225Z,99.90
2019-04-23T21:44:33.972Z,99.90
2019-04-23T21:47:04.679Z,99.90
2019-04-23T21:49:50.652Z,99.90
2019-04-23T21:52:05.142Z,99.90
2019-04-23T21:54:47.336Z,99.90
2019-04-23T21:57:08.624Z,99.90
2019-04-23T21:59:44.788Z,99.90
2019-04-23T22:02:10.835Z,99.90
2019-04-23T22:04:52.410Z,99.90
2019-04-23T22:07:14.988Z,99.90
2019-04-23T22:09:51.844Z,99.90
2019-04-23T22:12:23.511Z,99.90
2019-04-23T22:14:53.637Z,99.90
2019-04-23T22:17:24.862Z,99.90
2019-04-23T22:20:05.564Z,99.90
2019-04-23T22:22:28.612Z,99.90
2019-04-23T22:24:59.064Z,99.90
2019-04-23T22:27:27.624Z,99.90
2019-04-23T22:29:59.433Z,99.90
2019-04-23T22:32:40.522Z,99.90
2019-04-23T22:40:05.473Z,99.90
2019-04-23T22:43:10.288Z,99.90
2019-04-23T22:45:10.671Z,99.90
2019-04-23T22:47:50.829Z,99.90
2019-04-23T22:50:15.489Z,99.90
2019-04-23T22:52:48.288Z,99.90
2019-04-23T22:58:01.439Z,99.90
2019-04-23T23:00:16.730Z,99.90
2019-04-23T23:05:56.270Z,99.90
2019-04-23T23:08:13.453Z,99.90
2019-04-23T23:10:51.855Z,99.90
2019-04-23T23:13:20.668Z,99.90
2019-04-23T23:15:54.676Z,99.90
2019-04-23T23:18:18.153Z,99.90
2019-04-23T23:23:39.464Z,99.90
2019-04-23T23:25:57.314Z,99.90
2019-04-23T23:28:28.719Z,99.90
2019-04-23T23:33:43.131Z,99.90
2019-04-23T23:36:10.394Z,99.90
2019-04-23T23:38:42.139Z,99.90
2019-04-23T23:46:24.433Z,99.90
2019-04-23T23:48:42.162Z,99.90
2019-04-23T23:56:15.887Z,99.90
2019-04-23T23:58:58.296Z,99.90
